Seaexpress — 9HA3260 — position and weather

sailwx.info

Track history (hours):
 
Tides and Currents Weather Stations Pressure Air Temp Water Temp Dewpoint Dewpoint Depression Visibility Wind Speed Wind Dir Waves Ship Positions

Seaexpress

Last reported at 2018-Feb-28 21:02 UTC. Time now 2018-Apr-24 22:55 UTC.
Position N 09°11' W 079°52'.
Warning: this ship's position is 55 days out of date.

Length 180 m; draft 10.5 m.

Type: Tanker. MMSI: 229353000.

Date/timePositionNaut miles runAvg speedWind from/ knotsBaromVisibWave heightAir tempDewpointWater temp
2018-Feb-28 21:02N 09°11' W 079°52'0 8.3
2018-Feb-28 21:00N 09°11' W 079°52'4 6.5
2018-Feb-28 20:20N 09°14' W 079°56'0 0.6
2018-Feb-28 20:01N 09°14' W 079°56'0 0.1
2018-Feb-28 19:29N 09°14' W 079°56'0 0.0
2018-Feb-28 18:59N 09°14' W 079°56'0 0.0
2018-Feb-28 18:29N 09°14' W 079°56'0 0.0
2018-Feb-28 17:59N 09°14' W 079°56'0 0.0
2018-Feb-28 17:29N 09°14' W 079°56'0 0.0
2018-Feb-28 16:56N 09°14' W 079°56'0 0.0
2018-Feb-28 16:29N 09°14' W 079°56'0 0.0
2018-Feb-28 15:59N 09°14' W 079°56'0 0.0
2018-Feb-28 15:29N 09°14' W 079°56'0 0.0
2018-Feb-28 14:56N 09°14' W 079°56'0 0.0
2018-Feb-28 14:29N 09°14' W 079°56'0 0.1
2018-Feb-28 13:59N 09°14' W 079°56'0 0.0
2018-Feb-28 13:26N 09°14' W 079°56'0 0.0
2018-Feb-28 12:59N 09°14' W 079°56'0 0.0
2018-Feb-28 12:29N 09°14' W 079°56'0 0.0
2018-Feb-28 11:59N 09°14' W 079°56'0 0.0
2018-Feb-28 11:20N 09°14' W 079°56'0 0.0
2018-Feb-28 10:56N 09°14' W 079°56'0 0.0
2018-Feb-28 10:29N 09°14' W 079°56'0 0.0
2018-Feb-28 09:53N 09°14' W 079°56'0 0.0
2018-Feb-28 08:50N 09°14' W 079°56'0 0.0
2018-Feb-28 08:14N 09°14' W 079°56'0 0.1
2018-Feb-28 07:50N 09°14' W 079°56'0 0.1
2018-Feb-28 07:28N 09°14' W 079°56'1 3.1
2018-Feb-28 07:00N 09°15' W 079°55'1 1.6
2018-Feb-28 06:30N 09°16' W 079°55'0 0.6
2018-Feb-28 05:59N 09°17' W 079°55'0 0.4
2018-Feb-28 05:29N 09°17' W 079°55'1 1.2
2018-Feb-28 05:00N 09°17' W 079°55'2 3.4
2018-Feb-28 04:30N 09°19' W 079°55'3 6.6
2018-Feb-28 04:01N 09°22' W 079°55'3 6.1
2018-Feb-28 03:30N 09°25' W 079°55'2 4.7
2018-Feb-28 03:00N 09°25' W 079°57'0 0.3
2018-Feb-28 02:27N 09°25' W 079°57'0 0.0
2018-Feb-28 02:00N 09°25' W 079°57'0 0.0
2018-Feb-28 01:30N 09°25' W 079°57'0 0.0
2018-Feb-28 01:00N 09°25' W 079°57'0 0.0
2018-Feb-28 00:27N 09°25' W 079°57'0 0.0
2018-Feb-28 00:00N 09°25' W 079°57'0 0.0
2018-Feb-27 23:30N 09°25' W 079°57'0 0.0
2018-Feb-27 23:00N 09°25' W 079°57'0 0.0
2018-Feb-27 22:24N 09°25' W 079°57'0 0.0
2018-Feb-27 22:00N 09°25' W 079°57'0 0.0
2018-Feb-27 21:30N 09°25' W 079°57'0 0.0
2018-Feb-27 21:00N 09°25' W 079°57'0 0.0
2018-Feb-27 20:30N 09°25' W 079°57'0 0.0
2018-Feb-27 20:00N 09°25' W 079°57'0 0.0
2018-Feb-27 19:30N 09°25' W 079°57'0 0.0
2018-Feb-27 18:54N 09°25' W 079°57'0 0.0
2018-Feb-27 18:30N 09°25' W 079°57'0 0.0
2018-Feb-27 18:00N 09°25' W 079°57'0 0.0
2018-Feb-27 17:27N 09°25' W 079°57'0 0.0
2018-Feb-27 17:00N 09°25' W 079°57'0 0.0
2018-Feb-27 16:30N 09°25' W 079°57'0 0.0
2018-Feb-27 15:57N 09°25' W 079°57'0 0.0
2018-Feb-27 15:30N 09°25' W 079°57'0 0.0
2018-Feb-27 15:00N 09°25' W 079°57'0 0.0
2018-Feb-27 14:27N 09°25' W 079°57'0 0.0
2018-Feb-27 14:00N 09°25' W 079°57'0 0.0
2018-Feb-27 13:30N 09°25' W 079°57'0 0.0
2018-Feb-27 13:00N 09°25' W 079°57'0 0.0
2018-Feb-27 12:30N 09°25' W 079°57'0 0.0
2018-Feb-27 12:00N 09°25' W 079°57'0 0.0
2018-Feb-27 11:30N 09°25' W 079°57'0 0.0
2018-Feb-27 11:00N 09°25' W 079°57'0 0.0
2018-Feb-27 10:30N 09°25' W 079°57'0 0.0
2018-Feb-27 09:09N 09°25' W 079°57'0 0.0
2018-Feb-27 08:57N 09°25' W 079°57'0 0.0
2018-Feb-27 08:18N 09°25' W 079°57'0 0.0
2018-Feb-27 08:00N 09°25' W 079°57'0 0.0
2018-Feb-27 07:24N 09°25' W 079°57'0 0.0
2018-Feb-27 07:00N 09°25' W 079°57'0 0.0
2018-Feb-27 06:30N 09°25' W 079°57'0 0.0
2018-Feb-27 06:00N 09°25' W 079°57'0 0.0
2018-Feb-27 05:30N 09°25' W 079°57'0 0.0
2018-Feb-27 05:00N 09°25' W 079°57'0 0.0
2018-Feb-27 04:30N 09°25' W 079°57'0 0.0
2018-Feb-27 04:00N 09°25' W 079°57'0 0.0
2018-Feb-27 03:30N 09°25' W 079°57'0 0.0
2018-Feb-27 03:00N 09°25' W 079°57'0 0.0
2018-Feb-27 02:30N 09°25' W 079°57'0 0.0
2018-Feb-27 02:00N 09°25' W 079°57'0 0.0
2018-Feb-27 01:30N 09°25' W 079°57'0 0.0
2018-Feb-27 00:54N 09°25' W 079°57'0 0.0
2018-Feb-27 00:30N 09°25' W 079°57'0 0.0
2018-Feb-27 00:00N 09°25' W 079°57'0 0.0
2018-Feb-26 22:48N 09°25' W 079°57'0 0.0
2018-Feb-26 22:30N 09°25' W 079°57'0 0.0
2018-Feb-26 21:36N 09°25' W 079°57'0 0.0
2018-Feb-26 21:21N 09°25' W 079°57'0 0.0
2018-Feb-26 20:51N 09°25' W 079°57'0 0.0
2018-Feb-26 20:30N 09°25' W 079°57'0 0.0
2018-Feb-26 19:54N 09°25' W 079°58'0 0.0
2018-Feb-26 19:30N 09°25' W 079°57'0 0.0
2018-Feb-26 19:00N 09°25' W 079°57'0 0.0
2018-Feb-26 18:30N 09°25' W 079°57'0 0.0
2018-Feb-26 17:57N 09°25' W 079°57'0 0.0
2018-Feb-26 17:30N 09°25' W 079°58'0 0.0
2018-Feb-26 16:57N 09°25' W 079°57'0 0.0
2018-Feb-26 16:24N 09°25' W 079°57'0 0.0
2018-Feb-26 16:00N 09°25' W 079°57'0 0.0
2018-Feb-26 15:24N 09°25' W 079°57'0 0.0
2018-Feb-26 15:00N 09°25' W 079°57'0 0.0
2018-Feb-26 14:30N 09°25' W 079°57'0 0.0
2018-Feb-26 14:00N 09°25' W 079°57'0 0.0
2018-Feb-26 13:30N 09°25' W 079°57'0 0.0
2018-Feb-26 13:00N 09°25' W 079°57'0 0.0
2018-Feb-26 12:27N 09°25' W 079°57'0 0.0
2018-Feb-26 12:00N 09°25' W 079°57'0 0.0
2018-Feb-26 11:30N 09°25' W 079°57'0 0.0
2018-Feb-26 11:00N 09°25' W 079°57'0 0.0
2018-Feb-26 10:30N 09°25' W 079°57'0 0.0
2018-Feb-26 10:00N 09°25' W 079°57'0 0.0
2018-Feb-26 09:30N 09°25' W 079°57'0 0.0
2018-Feb-26 09:00N 09°25' W 079°57'0 0.0
2018-Feb-26 08:30N 09°25' W 079°57'0 0.0
2018-Feb-26 08:00N 09°25' W 079°57'0 0.0
2018-Feb-26 07:30N 09°25' W 079°57'0 0.0
2018-Feb-26 07:00N 09°25' W 079°57'0 0.0
2018-Feb-26 06:30N 09°25' W 079°57'0 0.0
2018-Feb-26 06:00N 09°25' W 079°57'0 0.0
2018-Feb-26 05:30N 09°25' W 079°57'0 0.0
2018-Feb-26 05:00N 09°25' W 079°57'0 0.0
2018-Feb-26 04:30N 09°25' W 079°57'0 0.0
2018-Feb-26 04:00N 09°25' W 079°57'0 0.0
2018-Feb-26 03:27N 09°25' W 079°57'0 0.0
2018-Feb-26 03:00N 09°25' W 079°57'0 0.0
2018-Feb-26 02:27N 09°25' W 079°57'0 0.0
2018-Feb-26 02:00N 09°25' W 079°57'0 0.0
2018-Feb-26 01:30N 09°25' W 079°57'0 0.0
2018-Feb-26 01:00N 09°25' W 079°57'0 0.0
2018-Feb-26 00:30N 09°25' W 079°57'0 0.0
2018-Feb-25 23:51N 09°25' W 079°57'0 0.0
2018-Feb-25 23:30N 09°25' W 079°57'0 0.0
2018-Feb-25 22:51N 09°25' W 079°58'0 0.0
2018-Feb-25 22:30N 09°25' W 079°58'0 0.0
2018-Feb-25 22:00N 09°25' W 079°57'0 0.0
2018-Feb-25 21:27N 09°25' W 079°58'0 0.0
2018-Feb-25 21:00N 09°25' W 079°58'0 0.0
2018-Feb-25 20:27N 09°25' W 079°58'0 0.0
2018-Feb-25 20:00N 09°25' W 079°58'0 0.0
2018-Feb-25 19:30N 09°25' W 079°58'0 0.0
2018-Feb-25 19:00N 09°25' W 079°58'0 0.0
2018-Feb-25 18:30N 09°25' W 079°58'0 0.0
2018-Feb-25 18:00N 09°25' W 079°58'0 0.0
2018-Feb-25 17:30N 09°25' W 079°58'0 0.0
2018-Feb-25 17:00N 09°25' W 079°58'0 0.0
2018-Feb-25 16:27N 09°25' W 079°58'0 0.0
2018-Feb-25 16:00N 09°25' W 079°58'0 0.0
2018-Feb-25 15:30N 09°25' W 079°57'0 0.0
2018-Feb-25 15:00N 09°25' W 079°58'0 0.0
2018-Feb-25 14:27N 09°25' W 079°58'0 0.0
2018-Feb-25 14:00N 09°25' W 079°58'0 0.1
2018-Feb-25 13:30N 09°25' W 079°58'0 0.1
2018-Feb-25 13:00N 09°25' W 079°58'0 0.0
2018-Feb-25 12:27N 09°25' W 079°58'0 0.0
2018-Feb-25 12:00N 09°25' W 079°58'0 0.0
2018-Feb-25 11:30N 09°25' W 079°58'0 0.0
2018-Feb-25 11:00N 09°25' W 079°57'0 0.0
2018-Feb-25 10:30N 09°25' W 079°57'0 0.0
2018-Feb-25 10:00N 09°25' W 079°57'0 0.0
2018-Feb-25 09:30N 09°25' W 079°57'0 0.0
2018-Feb-25 09:00N 09°25' W 079°57'0 0.0
2018-Feb-25 08:30N 09°25' W 079°57'0 0.0
2018-Feb-25 08:00N 09°25' W 079°57'0 0.0
2018-Feb-25 07:30N 09°25' W 079°57'0 0.0
2018-Feb-25 07:00N 09°25' W 079°57'0 0.0
2018-Feb-25 06:30N 09°25' W 079°57'0 0.0
2018-Feb-25 06:00N 09°25' W 079°57'0 0.0
2018-Feb-25 05:30N 09°25' W 079°57'0 0.0
2018-Feb-25 05:00N 09°25' W 079°57'0 0.0
2018-Feb-25 04:30N 09°25' W 079°57'0 0.0
2018-Feb-25 04:00N 09°25' W 079°57'0 0.0
2018-Feb-25 03:30N 09°25' W 079°57'0 0.0
2018-Feb-25 03:00N 09°25' W 079°57'0 0.0
2018-Feb-25 02:30N 09°25' W 079°57'0 0.0
2018-Feb-25 02:00N 09°25' W 079°57'0 0.0
2018-Feb-25 01:29N 09°25' W 079°57'0 0.0
2018-Feb-25 01:00N 09°25' W 079°57'0 0.0
2018-Feb-25 00:30N 09°25' W 079°57'0 0.0
2018-Feb-25 00:00N 09°25' W 079°57'0 0.0
2018-Feb-24 23:30N 09°25' W 079°57'0 0.0
2018-Feb-24 23:00N 09°25' W 079°57'0 0.0
2018-Feb-24 22:30N 09°25' W 079°57'0 0.0
2018-Feb-24 22:00N 09°25' W 079°57'0 0.0
2018-Feb-24 21:30N 09°25' W 079°57'0 0.0
2018-Feb-24 21:00N 09°25' W 079°57'0 0.0
2018-Feb-24 20:30N 09°25' W 079°57'0 0.0
2018-Feb-24 20:00N 09°25' W 079°57'0 0.0
2018-Feb-24 19:30N 09°25' W 079°57'0 0.0
2018-Feb-24 19:00N 09°25' W 079°57'0 0.0
2018-Feb-24 18:30N 09°25' W 079°57'0 0.0
2018-Feb-24 18:00N 09°25' W 079°57'0 0.1
2018-Feb-24 17:29N 09°25' W 079°57'0 0.0
2018-Feb-24 17:00N 09°25' W 079°57'0 0.0
2018-Feb-24 16:30N 09°25' W 079°58'0 0.0
2018-Feb-24 16:00N 09°25' W 079°57'0 0.0
2018-Feb-24 15:30N 09°25' W 079°57'0 0.0
2018-Feb-24 15:00N 09°25' W 079°57'0 0.0
2018-Feb-24 14:30N 09°25' W 079°57'0 0.0
2018-Feb-24 14:00N 09°25' W 079°57'0 0.0
2018-Feb-24 13:30N 09°25' W 079°57'0 0.0
2018-Feb-24 13:00N 09°25' W 079°57'0 0.0
2018-Feb-24 12:30N 09°25' W 079°57'0 0.0
2018-Feb-24 12:00N 09°25' W 079°57'0 0.0
2018-Feb-24 11:30N 09°25' W 079°57'0 0.0
2018-Feb-24 11:00N 09°25' W 079°57'0 0.0
2018-Feb-24 10:30N 09°25' W 079°57'0 0.0
2018-Feb-24 10:00N 09°25' W 079°57'0 0.0
2018-Feb-24 09:30N 09°25' W 079°57'0 0.0
2018-Feb-24 09:00N 09°25' W 079°57'0 0.0
2018-Feb-24 08:30N 09°25' W 079°57'0 0.0
2018-Feb-24 08:00N 09°25' W 079°57'0 0.0
2018-Feb-24 07:30N 09°25' W 079°57'0 0.0
2018-Feb-24 07:00N 09°25' W 079°57'0 0.0
2018-Feb-24 06:30N 09°25' W 079°57'0 0.0
2018-Feb-24 06:00N 09°25' W 079°57'0 0.0
2018-Feb-24 05:30N 09°25' W 079°57'0 0.0
2018-Feb-24 05:00N 09°25' W 079°57'0 0.0
2018-Feb-24 04:30N 09°25' W 079°57'0 0.0
2018-Feb-24 04:00N 09°25' W 079°57'0 0.1
2018-Feb-24 03:30N 09°25' W 079°57'0 0.0
2018-Feb-24 03:00N 09°25' W 079°57'0 0.0
2018-Feb-24 02:30N 09°25' W 079°57'0 0.0
2018-Feb-24 02:00N 09°25' W 079°57'0 0.0
2018-Feb-24 01:30N 09°25' W 079°57'0 0.0
2018-Feb-24 01:00N 09°25' W 079°57'0 0.0
2018-Feb-24 00:30N 09°25' W 079°57'0 0.0
2018-Feb-24 00:00N 09°25' W 079°57'0 0.0
2018-Feb-23 23:30N 09°25' W 079°57'0 0.0
2018-Feb-23 23:00N 09°25' W 079°57'0 0.0
2018-Feb-23 22:30N 09°25' W 079°57'0 0.0
2018-Feb-23 22:00N 09°25' W 079°57'0 0.0
2018-Feb-23 21:30N 09°25' W 079°57'0 0.0
2018-Feb-23 21:00N 09°25' W 079°57'0 0.0
2018-Feb-23 20:30N 09°25' W 079°57'0 0.0
2018-Feb-23 20:00N 09°25' W 079°57'0 0.0
2018-Feb-23 19:30N 09°25' W 079°57'0 0.0
2018-Feb-23 19:00N 09°25' W 079°57'0 0.1
2018-Feb-23 18:27N 09°25' W 079°57'0 0.1
2018-Feb-23 18:00N 09°25' W 079°57'0 0.0
2018-Feb-23 17:30N 09°25' W 079°57'0 0.1
2018-Feb-23 17:00N 09°25' W 079°57'0 0.0
2018-Feb-23 16:30N 09°25' W 079°57'0 0.0
2018-Feb-23 16:00N 09°25' W 079°57'0 0.0
2018-Feb-23 15:30N 09°25' W 079°57'0 0.0
2018-Feb-23 15:00N 09°25' W 079°57'0 0.0
2018-Feb-23 14:30N 09°25' W 079°57'0 0.0
2018-Feb-23 14:00N 09°25' W 079°57'0 0.0
2018-Feb-23 13:30N 09°25' W 079°57'0 0.0
2018-Feb-23 13:00N 09°25' W 079°57'0 0.0
2018-Feb-23 12:30N 09°25' W 079°57'0 0.1
2018-Feb-23 12:00N 09°25' W 079°57'0 0.0
2018-Feb-23 11:30N 09°25' W 079°57'0 0.0
2018-Feb-23 11:00N 09°25' W 079°57'0 0.0
2018-Feb-23 10:30N 09°25' W 079°57'0 0.0
2018-Feb-23 10:00N 09°25' W 079°57'0 0.0
2018-Feb-23 09:30N 09°25' W 079°57'0 0.0
2018-Feb-23 09:00N 09°25' W 079°57'0 0.0
2018-Feb-23 08:30N 09°25' W 079°57'0 0.0
2018-Feb-23 08:00N 09°25' W 079°57'0 0.0
2018-Feb-23 07:30N 09°25' W 079°57'0 0.0
2018-Feb-23 07:00N 09°25' W 079°57'0 0.0
2018-Feb-23 06:30N 09°25' W 079°57'0 0.0
2018-Feb-23 06:00N 09°25' W 079°57'0 0.0
2018-Feb-23 05:30N 09°25' W 079°57'0 0.0
2018-Feb-23 05:00N 09°25' W 079°57'0 0.0
2018-Feb-23 04:30N 09°25' W 079°57'0 0.0
2018-Feb-23 04:00N 09°25' W 079°57'0 0.0
2018-Feb-23 03:30N 09°25' W 079°57'0 0.0
2018-Feb-23 03:00N 09°25' W 079°57'0 0.0
2018-Feb-23 02:30N 09°25' W 079°57'0 0.0
2018-Feb-23 02:00N 09°25' W 079°57'0 0.0
2018-Feb-23 01:30N 09°25' W 079°57'0 0.0
2018-Feb-23 01:00N 09°25' W 079°57'0 0.0
2018-Feb-23 00:30N 09°25' W 079°57'0 0.0
2018-Feb-23 00:00N 09°25' W 079°57'0 0.0
2018-Feb-22 23:30N 09°25' W 079°57'0 0.0
2018-Feb-22 23:00N 09°25' W 079°57'0 0.0
2018-Feb-22 22:30N 09°25' W 079°57'0 0.0
2018-Feb-22 22:00N 09°25' W 079°57'0 0.0
2018-Feb-22 21:30N 09°25' W 079°57'0 0.0
2018-Feb-22 21:00N 09°25' W 079°57'0 0.0
2018-Feb-22 20:30N 09°25' W 079°57'0 0.0
2018-Feb-22 20:00N 09°25' W 079°57'0 0.0
2018-Feb-22 19:30N 09°25' W 079°57'0 0.0
2018-Feb-22 19:00N 09°25' W 079°57'0 0.0
2018-Feb-22 18:30N 09°25' W 079°57'0 0.0
2018-Feb-22 18:00N 09°25' W 079°57'0 0.0
2018-Feb-22 17:30N 09°25' W 079°57'0 0.0
2018-Feb-22 17:00N 09°25' W 079°57'0 0.0
2018-Feb-22 16:30N 09°25' W 079°57'0 0.0
2018-Feb-22 16:00N 09°25' W 079°57'0 0.0
2018-Feb-22 15:30N 09°25' W 079°58'0 0.0
2018-Feb-22 15:00N 09°25' W 079°57'0 0.0
2018-Feb-22 14:30N 09°25' W 079°57'0 0.0
2018-Feb-22 14:00N 09°25' W 079°57'0 0.0
2018-Feb-22 13:30N 09°25' W 079°57'0 0.0
2018-Feb-22 13:00N 09°25' W 079°58'0 0.0
2018-Feb-22 12:30N 09°25' W 079°57'0 0.0
2018-Feb-22 12:00N 09°25' W 079°57'0 0.0
2018-Feb-22 11:30N 09°25' W 079°57'0 0.0
2018-Feb-22 11:00N 09°25' W 079°57'0 0.0
2018-Feb-22 10:30N 09°25' W 079°57'0 0.0
2018-Feb-22 10:00N 09°25' W 079°57'0 0.0
2018-Feb-22 09:30N 09°25' W 079°57'0 0.0
2018-Feb-22 09:00N 09°25' W 079°57'0 0.0
2018-Feb-22 08:30N 09°25' W 079°57'0 0.0
2018-Feb-22 08:00N 09°25' W 079°57'0 0.0
2018-Feb-22 07:30N 09°25' W 079°57'0 0.0
2018-Feb-22 07:00N 09°25' W 079°57'0 0.0
2018-Feb-22 06:30N 09°25' W 079°57'0 0.0
2018-Feb-22 06:00N 09°25' W 079°57'0 0.0
2018-Feb-22 05:30N 09°25' W 079°57'0 0.0
2018-Feb-22 05:00N 09°25' W 079°57'0 0.0
2018-Feb-22 04:30N 09°25' W 079°58'0 0.0
2018-Feb-22 03:59N 09°25' W 079°58'0 0.0
2018-Feb-22 03:30N 09°25' W 079°58'0 0.0
2018-Feb-22 03:00N 09°25' W 079°57'0 0.0
2018-Feb-22 02:30N 09°25' W 079°58'0 0.0
2018-Feb-22 02:00N 09°25' W 079°58'0 0.0
2018-Feb-22 01:30N 09°25' W 079°58'0 0.0
2018-Feb-22 01:00N 09°25' W 079°58'0 0.0
2018-Feb-22 00:29N 09°25' W 079°58'0 0.0
2018-Feb-22 00:00N 09°25' W 079°58'0 0.0
2018-Feb-21 23:10N 09°25' W 079°58'0 0.0
2018-Feb-21 22:50N 09°25' W 079°58'0 0.0
2018-Feb-21 22:28N 09°25' W 079°58'0 0.0
2018-Feb-21 22:00N 09°25' W 079°57'0 0.0
2018-Feb-21 21:30N 09°25' W 079°57'0 0.0
2018-Feb-21 21:00N 09°25' W 079°57'0 0.0
2018-Feb-21 20:30N 09°25' W 079°57'0 0.0
2018-Feb-21 20:00N 09°25' W 079°58'0 0.0
2018-Feb-21 19:30N 09°25' W 079°58'0 0.0
2018-Feb-21 19:00N 09°25' W 079°57'0 0.0
2018-Feb-21 18:30N 09°25' W 079°58'0 0.0
2018-Feb-20 17:30N 09°25' W 079°57'0 0.0
2018-Feb-20 17:00N 09°25' W 079°57'0 0.0
2018-Feb-20 16:30N 09°25' W 079°57'0 0.0
2018-Feb-20 15:59N 09°25' W 079°57'0 0.0
2018-Feb-20 15:30N 09°25' W 079°57'0 0.0
2018-Feb-20 15:00N 09°25' W 079°57'0 0.0
2018-Feb-20 14:30N 09°25' W 079°57'0 0.0
2018-Feb-20 14:00N 09°25' W 079°57'0 0.0
2018-Feb-20 13:30N 09°25' W 079°57'0 0.0
2018-Feb-20 13:00N 09°25' W 079°57'0 0.0
2018-Feb-20 12:30N 09°25' W 079°57'0 0.0
2018-Feb-20 12:00N 09°25' W 079°57'0 0.0
2018-Feb-20 11:30N 09°25' W 079°57'0 0.0
2018-Feb-20 11:00N 09°25' W 079°57'0 0.0
2018-Feb-20 10:30N 09°25' W 079°57'0 0.0
2018-Feb-20 10:00N 09°25' W 079°57'0 0.0
2018-Feb-20 09:30N 09°25' W 079°57'0 0.0
2018-Feb-20 09:00N 09°25' W 079°57'0 0.0
2018-Feb-20 08:30N 09°25' W 079°57'0 0.0
2018-Feb-20 08:00N 09°25' W 079°57'0 0.0
2018-Feb-20 07:30N 09°25' W 079°57'0 0.0
2018-Feb-20 07:00N 09°25' W 079°57'0 0.0
2018-Feb-20 06:30N 09°25' W 079°57'0 0.0
2018-Feb-20 06:00N 09°25' W 079°57'0 0.0
2018-Feb-20 05:30N 09°25' W 079°57'0 0.0
2018-Feb-20 05:00N 09°25' W 079°57'0 0.0
2018-Feb-20 04:30N 09°25' W 079°57'0 0.0
2018-Feb-20 04:00N 09°25' W 079°57'0 0.0
2018-Feb-20 03:30N 09°25' W 079°57'0 0.0
2018-Feb-20 03:00N 09°25' W 079°57'0 0.0
2018-Feb-20 02:30N 09°25' W 079°57'0 0.0
2018-Feb-20 02:00N 09°25' W 079°57'0 0.0
2018-Feb-20 01:30N 09°25' W 079°57'0 0.0
2018-Feb-20 01:00N 09°25' W 079°57'0 0.0
2018-Feb-20 00:30N 09°25' W 079°57'0 0.0
2018-Feb-19 23:59N 09°25' W 079°57'0 0.0
2018-Feb-19 23:30N 09°25' W 079°57'0 0.0
2018-Feb-19 23:00N 09°25' W 079°57'0 0.0
2018-Feb-19 22:30N 09°25' W 079°57'0 0.0
2018-Feb-19 22:00N 09°25' W 079°57'0 0.0
2018-Feb-19 21:30N 09°25' W 079°57'0 0.0
2018-Feb-19 21:00N 09°25' W 079°57'0 0.0
2018-Feb-19 20:30N 09°25' W 079°57'0 0.0
2018-Feb-19 20:00N 09°25' W 079°57'0 0.0
2018-Feb-19 19:30N 09°25' W 079°57'0 0.0
2018-Feb-19 19:00N 09°25' W 079°57'0 0.0
2018-Feb-19 18:30N 09°25' W 079°57'0 0.0
2018-Feb-19 18:00N 09°25' W 079°57'0 0.0
2018-Feb-19 17:30N 09°25' W 079°57'0 0.0
2018-Feb-19 17:00N 09°25' W 079°57'0 0.0
2018-Feb-19 16:30N 09°25' W 079°57'0 0.0
2018-Feb-19 16:00N 09°25' W 079°57'0 0.0
2018-Feb-19 15:30N 09°25' W 079°57'0 0.0
2018-Feb-19 13:55N 09°25' W 079°57'0 0.0
2018-Feb-19 13:30N 09°25' W 079°57'0 0.0
2018-Feb-19 13:00N 09°25' W 079°57'0 0.0
2018-Feb-19 12:30N 09°25' W 079°57'0 0.0
2018-Feb-19 11:57N 09°25' W 079°57'0 0.0
2018-Feb-19 11:30N 09°25' W 079°57'0 0.0
2018-Feb-19 11:00N 09°25' W 079°57'0 0.0
2018-Feb-19 10:30N 09°25' W 079°57'0 0.0
2018-Feb-19 10:00N 09°25' W 079°57'0 0.0
2018-Feb-19 09:30N 09°25' W 079°57'0 0.0
2018-Feb-19 09:00N 09°25' W 079°57'0 0.0
2018-Feb-19 08:30N 09°25' W 079°57'0 0.0
2018-Feb-19 08:00N 09°25' W 079°57'0 0.0
2018-Feb-19 07:30N 09°25' W 079°57'0 0.0
2018-Feb-19 07:00N 09°25' W 079°57'0 0.0
2018-Feb-19 06:30N 09°25' W 079°57'0 0.0
2018-Feb-19 06:00N 09°25' W 079°57'0 0.0
2018-Feb-19 05:30N 09°25' W 079°57'0 0.0
2018-Feb-19 05:00N 09°25' W 079°57'0 0.0
2018-Feb-19 04:30N 09°25' W 079°57'0 0.0
2018-Feb-19 04:00N 09°25' W 079°57'0 0.0
2018-Feb-19 03:30N 09°25' W 079°57'0 0.0
2018-Feb-19 03:00N 09°25' W 079°57'0 0.0
2018-Feb-19 02:30N 09°25' W 079°57'0 0.0
2018-Feb-19 02:00N 09°25' W 079°57'0 0.0
2018-Feb-19 01:30N 09°25' W 079°57'0 0.0
2018-Feb-19 01:00N 09°25' W 079°57'0 0.0
2018-Feb-19 00:30N 09°25' W 079°57'0 0.0
2018-Feb-19 00:00N 09°25' W 079°57'0 0.0
2018-Feb-18 23:30N 09°25' W 079°57'0 0.0
2018-Feb-18 23:00N 09°25' W 079°57'0 0.0
2018-Feb-18 22:30N 09°25' W 079°57'0 0.0
2018-Feb-18 22:00N 09°25' W 079°57'0 0.0
2018-Feb-18 21:30N 09°25' W 079°57'  
Track history (hours):
 
Tides and Currents Weather Stations Pressure Air Temp Water Temp Dewpoint Dewpoint Depression Visibility Wind Speed Wind Dir Waves Ship Positions

Seaexpress

Last reported at 2018-Feb-28 21:02 UTC. Time now 2018-Apr-24 22:55 UTC.
Position N 09°11' W 079°52'.
Warning: this ship's position is 55 days out of date.

Length 180 m; draft 10.5 m.

Type: Tanker. MMSI: 229353000.

Date/timePositionNaut miles runAvg speedWind from/ knotsBaromVisibWave heightAir tempDewpointWater temp
2018-Feb-28 21:02N 09°11' W 079°52'0 8.3
2018-Feb-28 21:00N 09°11' W 079°52'4 6.5
2018-Feb-28 20:20N 09°14' W 079°56'0 0.6
2018-Feb-28 20:01N 09°14' W 079°56'0 0.1
2018-Feb-28 19:29N 09°14' W 079°56'0 0.0
2018-Feb-28 18:59N 09°14' W 079°56'0 0.0
2018-Feb-28 18:29N 09°14' W 079°56'0 0.0
2018-Feb-28 17:59N 09°14' W 079°56'0 0.0
2018-Feb-28 17:29N 09°14' W 079°56'0 0.0
2018-Feb-28 16:56N 09°14' W 079°56'0 0.0
2018-Feb-28 16:29N 09°14' W 079°56'0 0.0
2018-Feb-28 15:59N 09°14' W 079°56'0 0.0
2018-Feb-28 15:29N 09°14' W 079°56'0 0.0
2018-Feb-28 14:56N 09°14' W 079°56'0 0.0
2018-Feb-28 14:29N 09°14' W 079°56'0 0.1
2018-Feb-28 13:59N 09°14' W 079°56'0 0.0
2018-Feb-28 13:26N 09°14' W 079°56'0 0.0
2018-Feb-28 12:59N 09°14' W 079°56'0 0.0
2018-Feb-28 12:29N 09°14' W 079°56'0 0.0
2018-Feb-28 11:59N 09°14' W 079°56'0 0.0
2018-Feb-28 11:20N 09°14' W 079°56'0 0.0
2018-Feb-28 10:56N 09°14' W 079°56'0 0.0
2018-Feb-28 10:29N 09°14' W 079°56'0 0.0
2018-Feb-28 09:53N 09°14' W 079°56'0 0.0
2018-Feb-28 08:50N 09°14' W 079°56'0 0.0
2018-Feb-28 08:14N 09°14' W 079°56'0 0.1
2018-Feb-28 07:50N 09°14' W 079°56'0 0.1
2018-Feb-28 07:28N 09°14' W 079°56'1 3.1
2018-Feb-28 07:00N 09°15' W 079°55'1 1.6
2018-Feb-28 06:30N 09°16' W 079°55'0 0.6
2018-Feb-28 05:59N 09°17' W 079°55'0 0.4
2018-Feb-28 05:29N 09°17' W 079°55'1 1.2
2018-Feb-28 05:00N 09°17' W 079°55'2 3.4
2018-Feb-28 04:30N 09°19' W 079°55'3 6.6
2018-Feb-28 04:01N 09°22' W 079°55'3 6.1
2018-Feb-28 03:30N 09°25' W 079°55'2 4.7
2018-Feb-28 03:00N 09°25' W 079°57'0 0.3
2018-Feb-28 02:27N 09°25' W 079°57'0 0.0
2018-Feb-28 02:00N 09°25' W 079°57'0 0.0
2018-Feb-28 01:30N 09°25' W 079°57'0 0.0
2018-Feb-28 01:00N 09°25' W 079°57'0 0.0
2018-Feb-28 00:27N 09°25' W 079°57'0 0.0
2018-Feb-28 00:00N 09°25' W 079°57'0 0.0
2018-Feb-27 23:30N 09°25' W 079°57'0 0.0
2018-Feb-27 23:00N 09°25' W 079°57'0 0.0
2018-Feb-27 22:24N 09°25' W 079°57'0 0.0
2018-Feb-27 22:00N 09°25' W 079°57'0 0.0
2018-Feb-27 21:30N 09°25' W 079°57'0 0.0
2018-Feb-27 21:00N 09°25' W 079°57'0 0.0
2018-Feb-27 20:30N 09°25' W 079°57'0 0.0
2018-Feb-27 20:00N 09°25' W 079°57'0 0.0
2018-Feb-27 19:30N 09°25' W 079°57'0 0.0
2018-Feb-27 18:54N 09°25' W 079°57'0 0.0
2018-Feb-27 18:30N 09°25' W 079°57'0 0.0
2018-Feb-27 18:00N 09°25' W 079°57'0 0.0
2018-Feb-27 17:27N 09°25' W 079°57'0 0.0
2018-Feb-27 17:00N 09°25' W 079°57'0 0.0
2018-Feb-27 16:30N 09°25' W 079°57'0 0.0
2018-Feb-27 15:57N 09°25' W 079°57'0 0.0
2018-Feb-27 15:30N 09°25' W 079°57'0 0.0
2018-Feb-27 15:00N 09°25' W 079°57'0 0.0
2018-Feb-27 14:27N 09°25' W 079°57'0 0.0
2018-Feb-27 14:00N 09°25' W 079°57'0 0.0
2018-Feb-27 13:30N 09°25' W 079°57'0 0.0
2018-Feb-27 13:00N 09°25' W 079°57'0 0.0
2018-Feb-27 12:30N 09°25' W 079°57'0 0.0
2018-Feb-27 12:00N 09°25' W 079°57'0 0.0
2018-Feb-27 11:30N 09°25' W 079°57'0 0.0
2018-Feb-27 11:00N 09°25' W 079°57'0 0.0
2018-Feb-27 10:30N 09°25' W 079°57'0 0.0
2018-Feb-27 09:09N 09°25' W 079°57'0 0.0
2018-Feb-27 08:57N 09°25' W 079°57'0 0.0
2018-Feb-27 08:18N 09°25' W 079°57'0 0.0
2018-Feb-27 08:00N 09°25' W 079°57'0 0.0
2018-Feb-27 07:24N 09°25' W 079°57'0 0.0
2018-Feb-27 07:00N 09°25' W 079°57'0 0.0
2018-Feb-27 06:30N 09°25' W 079°57'0 0.0
2018-Feb-27 06:00N 09°25' W 079°57'0 0.0
2018-Feb-27 05:30N 09°25' W 079°57'0 0.0
2018-Feb-27 05:00N 09°25' W 079°57'0 0.0
2018-Feb-27 04:30N 09°25' W 079°57'0 0.0
2018-Feb-27 04:00N 09°25' W 079°57'0 0.0
2018-Feb-27 03:30N 09°25' W 079°57'0 0.0
2018-Feb-27 03:00N 09°25' W 079°57'0 0.0
2018-Feb-27 02:30N 09°25' W 079°57'0 0.0
2018-Feb-27 02:00N 09°25' W 079°57'0 0.0
2018-Feb-27 01:30N 09°25' W 079°57'0 0.0
2018-Feb-27 00:54N 09°25' W 079°57'0 0.0
2018-Feb-27 00:30N 09°25' W 079°57'0 0.0
2018-Feb-27 00:00N 09°25' W 079°57'0 0.0
2018-Feb-26 22:48N 09°25' W 079°57'0 0.0
2018-Feb-26 22:30N 09°25' W 079°57'0 0.0
2018-Feb-26 21:36N 09°25' W 079°57'0 0.0
2018-Feb-26 21:21N 09°25' W 079°57'0 0.0
2018-Feb-26 20:51N 09°25' W 079°57'0 0.0
2018-Feb-26 20:30N 09°25' W 079°57'0 0.0
2018-Feb-26 19:54N 09°25' W 079°58'0 0.0
2018-Feb-26 19:30N 09°25' W 079°57'0 0.0
2018-Feb-26 19:00N 09°25' W 079°57'0 0.0
2018-Feb-26 18:30N 09°25' W 079°57'0 0.0
2018-Feb-26 17:57N 09°25' W 079°57'0 0.0
2018-Feb-26 17:30N 09°25' W 079°58'0 0.0
2018-Feb-26 16:57N 09°25' W 079°57'0 0.0
2018-Feb-26 16:24N 09°25' W 079°57'0 0.0
2018-Feb-26 16:00N 09°25' W 079°57'0 0.0
2018-Feb-26 15:24N 09°25' W 079°57'0 0.0
2018-Feb-26 15:00N 09°25' W 079°57'0 0.0
2018-Feb-26 14:30N 09°25' W 079°57'0 0.0
2018-Feb-26 14:00N 09°25' W 079°57'0 0.0
2018-Feb-26 13:30N 09°25' W 079°57'0 0.0
2018-Feb-26 13:00N 09°25' W 079°57'0 0.0
2018-Feb-26 12:27N 09°25' W 079°57'0 0.0
2018-Feb-26 12:00N 09°25' W 079°57'0 0.0
2018-Feb-26 11:30N 09°25' W 079°57'0 0.0
2018-Feb-26 11:00N 09°25' W 079°57'0 0.0
2018-Feb-26 10:30N 09°25' W 079°57'0 0.0
2018-Feb-26 10:00N 09°25' W 079°57'0 0.0
2018-Feb-26 09:30N 09°25' W 079°57'0 0.0
2018-Feb-26 09:00N 09°25' W 079°57'0 0.0
2018-Feb-26 08:30N 09°25' W 079°57'0 0.0
2018-Feb-26 08:00N 09°25' W 079°57'0 0.0
2018-Feb-26 07:30N 09°25' W 079°57'0 0.0
2018-Feb-26 07:00N 09°25' W 079°57'0 0.0
2018-Feb-26 06:30N 09°25' W 079°57'0 0.0
2018-Feb-26 06:00N 09°25' W 079°57'0 0.0
2018-Feb-26 05:30N 09°25' W 079°57'0 0.0
2018-Feb-26 05:00N 09°25' W 079°57'0 0.0
2018-Feb-26 04:30N 09°25' W 079°57'0 0.0
2018-Feb-26 04:00N 09°25' W 079°57'0 0.0
2018-Feb-26 03:27N 09°25' W 079°57'0 0.0
2018-Feb-26 03:00N 09°25' W 079°57'0 0.0
2018-Feb-26 02:27N 09°25' W 079°57'0 0.0
2018-Feb-26 02:00N 09°25' W 079°57'0 0.0
2018-Feb-26 01:30N 09°25' W 079°57'0 0.0
2018-Feb-26 01:00N 09°25' W 079°57'0 0.0
2018-Feb-26 00:30N 09°25' W 079°57'0 0.0
2018-Feb-25 23:51N 09°25' W 079°57'0 0.0
2018-Feb-25 23:30N 09°25' W 079°57'0 0.0
2018-Feb-25 22:51N 09°25' W 079°58'0 0.0
2018-Feb-25 22:30N 09°25' W 079°58'0 0.0
2018-Feb-25 22:00N 09°25' W 079°57'0 0.0
2018-Feb-25 21:27N 09°25' W 079°58'0 0.0
2018-Feb-25 21:00N 09°25' W 079°58'0 0.0
2018-Feb-25 20:27N 09°25' W 079°58'0 0.0
2018-Feb-25 20:00N 09°25' W 079°58'0 0.0
2018-Feb-25 19:30N 09°25' W 079°58'0 0.0
2018-Feb-25 19:00N 09°25' W 079°58'0 0.0
2018-Feb-25 18:30N 09°25' W 079°58'0 0.0
2018-Feb-25 18:00N 09°25' W 079°58'0 0.0
2018-Feb-25 17:30N 09°25' W 079°58'0 0.0
2018-Feb-25 17:00N 09°25' W 079°58'0 0.0
2018-Feb-25 16:27N 09°25' W 079°58'0 0.0
2018-Feb-25 16:00N 09°25' W 079°58'0 0.0
2018-Feb-25 15:30N 09°25' W 079°57'0 0.0
2018-Feb-25 15:00N 09°25' W 079°58'0 0.0
2018-Feb-25 14:27N 09°25' W 079°58'0 0.0
2018-Feb-25 14:00N 09°25' W 079°58'0 0.1
2018-Feb-25 13:30N 09°25' W 079°58'0 0.1
2018-Feb-25 13:00N 09°25' W 079°58'0 0.0
2018-Feb-25 12:27N 09°25' W 079°58'0 0.0
2018-Feb-25 12:00N 09°25' W 079°58'0 0.0
2018-Feb-25 11:30N 09°25' W 079°58'0 0.0
2018-Feb-25 11:00N 09°25' W 079°57'0 0.0
2018-Feb-25 10:30N 09°25' W 079°57'0 0.0
2018-Feb-25 10:00N 09°25' W 079°57'0 0.0
2018-Feb-25 09:30N 09°25' W 079°57'0 0.0
2018-Feb-25 09:00N 09°25' W 079°57'0 0.0
2018-Feb-25 08:30N 09°25' W 079°57'0 0.0
2018-Feb-25 08:00N 09°25' W 079°57'0 0.0
2018-Feb-25 07:30N 09°25' W 079°57'0 0.0
2018-Feb-25 07:00N 09°25' W 079°57'0 0.0
2018-Feb-25 06:30N 09°25' W 079°57'0 0.0
2018-Feb-25 06:00N 09°25' W 079°57'0 0.0
2018-Feb-25 05:30N 09°25' W 079°57'0 0.0
2018-Feb-25 05:00N 09°25' W 079°57'0 0.0
2018-Feb-25 04:30N 09°25' W 079°57'0 0.0
2018-Feb-25 04:00N 09°25' W 079°57'0 0.0
2018-Feb-25 03:30N 09°25' W 079°57'0 0.0
2018-Feb-25 03:00N 09°25' W 079°57'0 0.0
2018-Feb-25 02:30N 09°25' W 079°57'0 0.0
2018-Feb-25 02:00N 09°25' W 079°57'0 0.0
2018-Feb-25 01:29N 09°25' W 079°57'0 0.0
2018-Feb-25 01:00N 09°25' W 079°57'0 0.0
2018-Feb-25 00:30N 09°25' W 079°57'0 0.0
2018-Feb-25 00:00N 09°25' W 079°57'0 0.0
2018-Feb-24 23:30N 09°25' W 079°57'0 0.0
2018-Feb-24 23:00N 09°25' W 079°57'0 0.0
2018-Feb-24 22:30N 09°25' W 079°57'0 0.0
2018-Feb-24 22:00N 09°25' W 079°57'0 0.0
2018-Feb-24 21:30N 09°25' W 079°57'0 0.0
2018-Feb-24 21:00N 09°25' W 079°57'0 0.0
2018-Feb-24 20:30N 09°25' W 079°57'0 0.0
2018-Feb-24 20:00N 09°25' W 079°57'0 0.0
2018-Feb-24 19:30N 09°25' W 079°57'0 0.0
2018-Feb-24 19:00N 09°25' W 079°57'0 0.0
2018-Feb-24 18:30N 09°25' W 079°57'0 0.0
2018-Feb-24 18:00N 09°25' W 079°57'0 0.1
2018-Feb-24 17:29N 09°25' W 079°57'0 0.0
2018-Feb-24 17:00N 09°25' W 079°57'0 0.0
2018-Feb-24 16:30N 09°25' W 079°58'0 0.0
2018-Feb-24 16:00N 09°25' W 079°57'0 0.0
2018-Feb-24 15:30N 09°25' W 079°57'0 0.0
2018-Feb-24 15:00N 09°25' W 079°57'0 0.0
2018-Feb-24 14:30N 09°25' W 079°57'0 0.0
2018-Feb-24 14:00N 09°25' W 079°57'0 0.0
2018-Feb-24 13:30N 09°25' W 079°57'0 0.0
2018-Feb-24 13:00N 09°25' W 079°57'0 0.0
2018-Feb-24 12:30N 09°25' W 079°57'0 0.0
2018-Feb-24 12:00N 09°25' W 079°57'0 0.0
2018-Feb-24 11:30N 09°25' W 079°57'0 0.0
2018-Feb-24 11:00N 09°25' W 079°57'0 0.0
2018-Feb-24 10:30N 09°25' W 079°57'0 0.0
2018-Feb-24 10:00N 09°25' W 079°57'0 0.0
2018-Feb-24 09:30N 09°25' W 079°57'0 0.0
2018-Feb-24 09:00N 09°25' W 079°57'0 0.0
2018-Feb-24 08:30N 09°25' W 079°57'0 0.0
2018-Feb-24 08:00N 09°25' W 079°57'0 0.0
2018-Feb-24 07:30N 09°25' W 079°57'0 0.0
2018-Feb-24 07:00N 09°25' W 079°57'0 0.0
2018-Feb-24 06:30N 09°25' W 079°57'0 0.0
2018-Feb-24 06:00N 09°25' W 079°57'0 0.0
2018-Feb-24 05:30N 09°25' W 079°57'0 0.0
2018-Feb-24 05:00N 09°25' W 079°57'0 0.0
2018-Feb-24 04:30N 09°25' W 079°57'0 0.0
2018-Feb-24 04:00N 09°25' W 079°57'0 0.1
2018-Feb-24 03:30N 09°25' W 079°57'0 0.0
2018-Feb-24 03:00N 09°25' W 079°57'0 0.0
2018-Feb-24 02:30N 09°25' W 079°57'0 0.0
2018-Feb-24 02:00N 09°25' W 079°57'0 0.0
2018-Feb-24 01:30N 09°25' W 079°57'0 0.0
2018-Feb-24 01:00N 09°25' W 079°57'0 0.0
2018-Feb-24 00:30N 09°25' W 079°57'0 0.0
2018-Feb-24 00:00N 09°25' W 079°57'0 0.0
2018-Feb-23 23:30N 09°25' W 079°57'0 0.0
2018-Feb-23 23:00N 09°25' W 079°57'0 0.0
2018-Feb-23 22:30N 09°25' W 079°57'0 0.0
2018-Feb-23 22:00N 09°25' W 079°57'0 0.0
2018-Feb-23 21:30N 09°25' W 079°57'0 0.0
2018-Feb-23 21:00N 09°25' W 079°57'0 0.0
2018-Feb-23 20:30N 09°25' W 079°57'0 0.0
2018-Feb-23 20:00N 09°25' W 079°57'0 0.0
2018-Feb-23 19:30N 09°25' W 079°57'0 0.0
2018-Feb-23 19:00N 09°25' W 079°57'0 0.1
2018-Feb-23 18:27N 09°25' W 079°57'0 0.1
2018-Feb-23 18:00N 09°25' W 079°57'0 0.0
2018-Feb-23 17:30N 09°25' W 079°57'0 0.1
2018-Feb-23 17:00N 09°25' W 079°57'0 0.0
2018-Feb-23 16:30N 09°25' W 079°57'0 0.0
2018-Feb-23 16:00N 09°25' W 079°57'0 0.0
2018-Feb-23 15:30N 09°25' W 079°57'0 0.0
2018-Feb-23 15:00N 09°25' W 079°57'0 0.0
2018-Feb-23 14:30N 09°25' W 079°57'0 0.0
2018-Feb-23 14:00N 09°25' W 079°57'0 0.0
2018-Feb-23 13:30N 09°25' W 079°57'0 0.0
2018-Feb-23 13:00N 09°25' W 079°57'0 0.0
2018-Feb-23 12:30N 09°25' W 079°57'0 0.1
2018-Feb-23 12:00N 09°25' W 079°57'0 0.0
2018-Feb-23 11:30N 09°25' W 079°57'0 0.0
2018-Feb-23 11:00N 09°25' W 079°57'0 0.0
2018-Feb-23 10:30N 09°25' W 079°57'0 0.0
2018-Feb-23 10:00N 09°25' W 079°57'0 0.0
2018-Feb-23 09:30N 09°25' W 079°57'0 0.0
2018-Feb-23 09:00N 09°25' W 079°57'0 0.0
2018-Feb-23 08:30N 09°25' W 079°57'0 0.0
2018-Feb-23 08:00N 09°25' W 079°57'0 0.0
2018-Feb-23 07:30N 09°25' W 079°57'0 0.0
2018-Feb-23 07:00N 09°25' W 079°57'0 0.0
2018-Feb-23 06:30N 09°25' W 079°57'0 0.0
2018-Feb-23 06:00N 09°25' W 079°57'0 0.0
2018-Feb-23 05:30N 09°25' W 079°57'0 0.0
2018-Feb-23 05:00N 09°25' W 079°57'0 0.0
2018-Feb-23 04:30N 09°25' W 079°57'0 0.0
2018-Feb-23 04:00N 09°25' W 079°57'0 0.0
2018-Feb-23 03:30N 09°25' W 079°57'0 0.0
2018-Feb-23 03:00N 09°25' W 079°57'0 0.0
2018-Feb-23 02:30N 09°25' W 079°57'0 0.0
2018-Feb-23 02:00N 09°25' W 079°57'0 0.0
2018-Feb-23 01:30N 09°25' W 079°57'0 0.0
2018-Feb-23 01:00N 09°25' W 079°57'0 0.0
2018-Feb-23 00:30N 09°25' W 079°57'0 0.0
2018-Feb-23 00:00N 09°25' W 079°57'0 0.0
2018-Feb-22 23:30N 09°25' W 079°57'0 0.0
2018-Feb-22 23:00N 09°25' W 079°57'0 0.0
2018-Feb-22 22:30N 09°25' W 079°57'0 0.0
2018-Feb-22 22:00N 09°25' W 079°57'0 0.0
2018-Feb-22 21:30N 09°25' W 079°57'0 0.0
2018-Feb-22 21:00N 09°25' W 079°57'0 0.0
2018-Feb-22 20:30N 09°25' W 079°57'0 0.0
2018-Feb-22 20:00N 09°25' W 079°57'0 0.0
2018-Feb-22 19:30N 09°25' W 079°57'0 0.0
2018-Feb-22 19:00N 09°25' W 079°57'0 0.0
2018-Feb-22 18:30N 09°25' W 079°57'0 0.0
2018-Feb-22 18:00N 09°25' W 079°57'0 0.0
2018-Feb-22 17:30N 09°25' W 079°57'0 0.0
2018-Feb-22 17:00N 09°25' W 079°57'0 0.0
2018-Feb-22 16:30N 09°25' W 079°57'0 0.0
2018-Feb-22 16:00N 09°25' W 079°57'0 0.0
2018-Feb-22 15:30N 09°25' W 079°58'0 0.0
2018-Feb-22 15:00N 09°25' W 079°57'0 0.0
2018-Feb-22 14:30N 09°25' W 079°57'0 0.0
2018-Feb-22 14:00N 09°25' W 079°57'0 0.0
2018-Feb-22 13:30N 09°25' W 079°57'0 0.0
2018-Feb-22 13:00N 09°25' W 079°58'0 0.0
2018-Feb-22 12:30N 09°25' W 079°57'0 0.0
2018-Feb-22 12:00N 09°25' W 079°57'0 0.0
2018-Feb-22 11:30N 09°25' W 079°57'0 0.0
2018-Feb-22 11:00N 09°25' W 079°57'0 0.0
2018-Feb-22 10:30N 09°25' W 079°57'0 0.0
2018-Feb-22 10:00N 09°25' W 079°57'0 0.0
2018-Feb-22 09:30N 09°25' W 079°57'0 0.0
2018-Feb-22 09:00N 09°25' W 079°57'0 0.0
2018-Feb-22 08:30N 09°25' W 079°57'0 0.0
2018-Feb-22 08:00N 09°25' W 079°57'0 0.0
2018-Feb-22 07:30N 09°25' W 079°57'0 0.0
2018-Feb-22 07:00N 09°25' W 079°57'0 0.0
2018-Feb-22 06:30N 09°25' W 079°57'0 0.0
2018-Feb-22 06:00N 09°25' W 079°57'0 0.0
2018-Feb-22 05:30N 09°25' W 079°57'0 0.0
2018-Feb-22 05:00N 09°25' W 079°57'0 0.0
2018-Feb-22 04:30N 09°25' W 079°58'0 0.0
2018-Feb-22 03:59N 09°25' W 079°58'0 0.0
2018-Feb-22 03:30N 09°25' W 079°58'0 0.0
2018-Feb-22 03:00N 09°25' W 079°57'0 0.0
2018-Feb-22 02:30N 09°25' W 079°58'0 0.0
2018-Feb-22 02:00N 09°25' W 079°58'0 0.0
2018-Feb-22 01:30N 09°25' W 079°58'0 0.0
2018-Feb-22 01:00N 09°25' W 079°58'0 0.0
2018-Feb-22 00:29N 09°25' W 079°58'0 0.0
2018-Feb-22 00:00N 09°25' W 079°58'0 0.0
2018-Feb-21 23:10N 09°25' W 079°58'0 0.0
2018-Feb-21 22:50N 09°25' W 079°58'0 0.0
2018-Feb-21 22:28N 09°25' W 079°58'0 0.0
2018-Feb-21 22:00N 09°25' W 079°57'0 0.0
2018-Feb-21 21:30N 09°25' W 079°57'0 0.0
2018-Feb-21 21:00N 09°25' W 079°57'0 0.0
2018-Feb-21 20:30N 09°25' W 079°57'0 0.0
2018-Feb-21 20:00N 09°25' W 079°58'0 0.0
2018-Feb-21 19:30N 09°25' W 079°58'0 0.0
2018-Feb-21 19:00N 09°25' W 079°57'0 0.0
2018-Feb-21 18:30N 09°25' W 079°58'0 0.0
2018-Feb-20 17:30N 09°25' W 079°57'0 0.0
2018-Feb-20 17:00N 09°25' W 079°57'0 0.0
2018-Feb-20 16:30N 09°25' W 079°57'0 0.0
2018-Feb-20 15:59N 09°25' W 079°57'0 0.0
2018-Feb-20 15:30N 09°25' W 079°57'0 0.0
2018-Feb-20 15:00N 09°25' W 079°57'0 0.0
2018-Feb-20 14:30N 09°25' W 079°57'0 0.0
2018-Feb-20 14:00N 09°25' W 079°57'0 0.0
2018-Feb-20 13:30N 09°25' W 079°57'0 0.0
2018-Feb-20 13:00N 09°25' W 079°57'0 0.0
2018-Feb-20 12:30N 09°25' W 079°57'0 0.0
2018-Feb-20 12:00N 09°25' W 079°57'0 0.0
2018-Feb-20 11:30N 09°25' W 079°57'0 0.0
2018-Feb-20 11:00N 09°25' W 079°57'0 0.0
2018-Feb-20 10:30N 09°25' W 079°57'0 0.0
2018-Feb-20 10:00N 09°25' W 079°57'0 0.0
2018-Feb-20 09:30N 09°25' W 079°57'0 0.0
2018-Feb-20 09:00N 09°25' W 079°57'0 0.0
2018-Feb-20 08:30N 09°25' W 079°57'0 0.0
2018-Feb-20 08:00N 09°25' W 079°57'0 0.0
2018-Feb-20 07:30N 09°25' W 079°57'0 0.0
2018-Feb-20 07:00N 09°25' W 079°57'0 0.0
2018-Feb-20 06:30N 09°25' W 079°57'0 0.0
2018-Feb-20 06:00N 09°25' W 079°57'0 0.0
2018-Feb-20 05:30N 09°25' W 079°57'0 0.0
2018-Feb-20 05:00N 09°25' W 079°57'0 0.0
2018-Feb-20 04:30N 09°25' W 079°57'0 0.0
2018-Feb-20 04:00N 09°25' W 079°57'0 0.0
2018-Feb-20 03:30N 09°25' W 079°57'0 0.0
2018-Feb-20 03:00N 09°25' W 079°57'0 0.0
2018-Feb-20 02:30N 09°25' W 079°57'0 0.0
2018-Feb-20 02:00N 09°25' W 079°57'0 0.0
2018-Feb-20 01:30N 09°25' W 079°57'0 0.0
2018-Feb-20 01:00N 09°25' W 079°57'0 0.0
2018-Feb-20 00:30N 09°25' W 079°57'0 0.0
2018-Feb-19 23:59N 09°25' W 079°57'0 0.0
2018-Feb-19 23:30N 09°25' W 079°57'0 0.0
2018-Feb-19 23:00N 09°25' W 079°57'0 0.0
2018-Feb-19 22:30N 09°25' W 079°57'0 0.0
2018-Feb-19 22:00N 09°25' W 079°57'0 0.0
2018-Feb-19 21:30N 09°25' W 079°57'0 0.0
2018-Feb-19 21:00N 09°25' W 079°57'0 0.0
2018-Feb-19 20:30N 09°25' W 079°57'0 0.0
2018-Feb-19 20:00N 09°25' W 079°57'0 0.0
2018-Feb-19 19:30N 09°25' W 079°57'0 0.0
2018-Feb-19 19:00N 09°25' W 079°57'0 0.0
2018-Feb-19 18:30N 09°25' W 079°57'0 0.0
2018-Feb-19 18:00N 09°25' W 079°57'0 0.0
2018-Feb-19 17:30N 09°25' W 079°57'0 0.0
2018-Feb-19 17:00N 09°25' W 079°57'0 0.0
2018-Feb-19 16:30N 09°25' W 079°57'0 0.0
2018-Feb-19 16:00N 09°25' W 079°57'0 0.0
2018-Feb-19 15:30N 09°25' W 079°57'0 0.0
2018-Feb-19 13:55N 09°25' W 079°57'0 0.0
2018-Feb-19 13:30N 09°25' W 079°57'0 0.0
2018-Feb-19 13:00N 09°25' W 079°57'0 0.0
2018-Feb-19 12:30N 09°25' W 079°57'0 0.0
2018-Feb-19 11:57N 09°25' W 079°57'0 0.0
2018-Feb-19 11:30N 09°25' W 079°57'0 0.0
2018-Feb-19 11:00N 09°25' W 079°57'0 0.0
2018-Feb-19 10:30N 09°25' W 079°57'0 0.0
2018-Feb-19 10:00N 09°25' W 079°57'0 0.0
2018-Feb-19 09:30N 09°25' W 079°57'0 0.0
2018-Feb-19 09:00N 09°25' W 079°57'0 0.0
2018-Feb-19 08:30N 09°25' W 079°57'0 0.0
2018-Feb-19 08:00N 09°25' W 079°57'0 0.0
2018-Feb-19 07:30N 09°25' W 079°57'0 0.0
2018-Feb-19 07:00N 09°25' W 079°57'0 0.0
2018-Feb-19 06:30N 09°25' W 079°57'0 0.0
2018-Feb-19 06:00N 09°25' W 079°57'0 0.0
2018-Feb-19 05:30N 09°25' W 079°57'0 0.0
2018-Feb-19 05:00N 09°25' W 079°57'0 0.0
2018-Feb-19 04:30N 09°25' W 079°57'0 0.0
2018-Feb-19 04:00N 09°25' W 079°57'0 0.0
2018-Feb-19 03:30N 09°25' W 079°57'0 0.0
2018-Feb-19 03:00N 09°25' W 079°57'0 0.0
2018-Feb-19 02:30N 09°25' W 079°57'0 0.0
2018-Feb-19 02:00N 09°25' W 079°57'0 0.0
2018-Feb-19 01:30N 09°25' W 079°57'0 0.0
2018-Feb-19 01:00N 09°25' W 079°57'0 0.0
2018-Feb-19 00:30N 09°25' W 079°57'0 0.0
2018-Feb-19 00:00N 09°25' W 079°57'0 0.0
2018-Feb-18 23:30N 09°25' W 079°57'0 0.0
2018-Feb-18 23:00N 09°25' W 079°57'0 0.0
2018-Feb-18 22:30N 09°25' W 079°57'0 0.0
2018-Feb-18 22:00N 09°25' W 079°57'0 0.0
2018-Feb-18 21:30N 09°25' W 079°57'  

Dump ship's entire track history